Time;durP1;ratioP1;P1;durP2;ratioP2;P2;SDS_P1;SDS_P2;PMS_P1;PMS_P2;Temp;Humidity;BMP_temperature;BMP_pressure;BME280_temperature;BME280_humidity;BME280_pressure;Samples;Min_cycle;Max_cycle;Signal;HPM_P1;HPM_P2
2022/05/26 00:01:26;;;;;;;2.20;2.00;;;16.00;99.90;;;;;;5060505;28;20194;-38
2022/05/26 00:03:52;;;;;;;2.47;2.30;;;15.90;99.90;;;;;;5050508;28;20189;-38
2022/05/26 00:06:21;;;;;;;2.20;2.10;;;15.90;99.90;;;;;;5049514;28;20485;-38
2022/05/26 00:08:47;;;;;;;3.87;1.97;;;15.90;99.90;;;;;;5054344;28;21142;-38
2022/05/26 00:11:29;;;;;;;2.80;2.30;;;15.90;99.90;;;;;;5064243;28;20438;-38
2022/05/26 00:13:56;;;;;;;2.73;2.53;;;15.90;99.90;;;;;;5068328;28;20529;-38
2022/05/26 00:16:22;;;;;;;3.77;2.33;;;15.80;99.90;;;;;;5059737;28;20979;-38
2022/05/26 00:18:48;;;;;;;4.77;2.20;;;15.80;99.90;;;;;;5052368;28;21080;-38
2022/05/26 00:21:15;;;;;;;2.57;2.03;;;15.80;99.90;;;;;;5060359;28;20424;-38
2022/05/26 00:23:40;;;;;;;3.07;2.53;;;15.90;99.90;;;;;;5071449;28;20181;-38
2022/05/26 00:26:06;;;;;;;3.67;2.40;;;15.90;99.90;;;;;;5056331;28;20480;-38
2022/05/26 00:28:32;;;;;;;4.40;2.40;;;15.90;99.90;;;;;;5060443;28;20445;-38
2022/05/26 00:30:59;;;;;;;2.20;2.00;;;15.90;99.90;;;;;;5068653;28;20189;-38
2022/05/26 00:33:24;;;;;;;3.30;1.80;;;15.80;99.90;;;;;;5056837;28;20348;-38
2022/05/26 00:35:50;;;;;;;2.67;2.20;;;15.80;99.90;;;;;;5057089;28;20995;-38
2022/05/26 00:38:16;;;;;;;2.53;2.20;;;15.80;99.90;;;;;;5070570;28;20216;-38
2022/05/26 00:40:44;;;;;;;4.33;1.97;;;15.80;99.90;;;;;;5063011;28;20189;-38
2022/05/26 00:43:11;;;;;;;4.70;2.17;;;15.90;99.90;;;;;;5071570;28;20427;-38
2022/05/26 00:45:47;;;;;;;3.13;2.70;;;15.90;99.90;;;;;;5070264;28;20443;-38
2022/05/26 00:48:18;;;;;;;4.90;2.37;;;15.80;99.90;;;;;;5052509;28;20501;-38
2022/05/26 00:50:56;;;;;;;2.07;1.97;;;15.80;99.90;;;;;;5057872;28;20436;-38
2022/05/26 00:53:42;;;;;;;1.87;1.50;;;15.70;99.90;;;;;;5062541;28;20917;-38
2022/05/26 00:56:19;;;;;;;2.03;1.70;;;15.70;99.90;;;;;;5067739;28;20442;-38
2022/05/26 00:58:49;;;;;;;5.50;1.93;;;15.70;99.90;;;;;;5070606;28;20490;-38
2022/05/26 01:01:15;;;;;;;2.20;2.00;;;15.60;99.90;;;;;;5069602;28;20419;-38
2022/05/26 01:03:55;;;;;;;2.30;2.00;;;15.70;99.90;;;;;;5052709;28;20465;-38
2022/05/26 01:06:50;;;;;;;2.00;1.90;;;15.70;99.90;;;;;;5056609;28;20416;-38
2022/05/26 01:09:15;;;;;;;2.93;1.70;;;15.80;99.90;;;;;;5062182;28;20521;-38
2022/05/26 01:11:43;;;;;;;2.97;1.80;;;15.80;99.90;;;;;;5056566;28;20582;-38
2022/05/26 01:14:32;;;;;;;3.37;2.00;;;15.80;99.90;;;;;;5069809;28;20197;-38
2022/05/26 01:17:04;;;;;;;1.70;1.50;;;15.80;99.90;;;;;;5056216;28;20452;-38
2022/05/26 01:20:05;;;;;;;4.07;1.97;;;15.80;99.90;;;;;;5055483;28;20468;-38
2022/05/26 01:23:01;;;;;;;1.90;1.80;;;15.60;99.90;;;;;;5064715;28;20452;-38
2022/05/26 01:25:48;;;;;;;2.33;1.67;;;15.60;99.90;;;;;;5064924;28;21013;-38
2022/05/26 01:28:44;;;;;;;1.73;1.57;;;15.60;99.90;;;;;;5043400;28;20419;-38
2022/05/26 01:31:47;;;;;;;3.63;1.70;;;15.60;99.90;;;;;;5070419;28;20430;-38
2022/05/26 01:34:35;;;;;;;3.73;1.63;;;15.70;99.90;;;;;;5052913;28;20504;-38
2022/05/26 01:37:20;;;;;;;2.10;1.60;;;15.60;99.90;;;;;;5050696;28;20829;-38
2022/05/26 01:40:10;;;;;;;2.83;2.07;;;15.60;99.90;;;;;;5070591;28;20471;-38
2022/05/26 01:42:52;;;;;;;4.57;1.63;;;15.50;99.90;;;;;;5068684;28;20415;-38
2022/05/26 01:45:33;;;;;;;3.83;2.10;;;15.60;99.90;;;;;;5070379;28;20423;-38
2022/05/26 01:48:18;;;;;;;1.73;1.63;;;15.70;99.90;;;;;;5056786;28;20442;-38
2022/05/26 01:51:07;;;;;;;2.13;1.80;;;15.70;99.90;;;;;;5050142;28;20420;-38
2022/05/26 01:53:49;;;;;;;2.80;2.07;;;15.70;99.90;;;;;;5064714;28;20426;-38
2022/05/26 01:56:33;;;;;;;2.33;2.17;;;15.50;99.90;;;;;;5059213;28;20444;-38
2022/05/26 01:59:06;;;;;;;3.00;2.20;;;15.40;99.90;;;;;;5069932;28;20961;-38
2022/05/26 02:01:36;;;;;;;2.93;2.53;;;15.40;99.90;;;;;;5069587;28;21043;-39
2022/05/26 02:04:08;;;;;;;2.37;2.17;;;15.40;99.90;;;;;;5050934;28;20424;-38
2022/05/26 02:06:40;;;;;;;3.30;1.97;;;15.40;99.90;;;;;;5055611;28;20453;-38
2022/05/26 02:09:15;;;;;;;2.53;2.33;;;15.40;99.90;;;;;;5069897;28;20431;-38
2022/05/26 02:12:17;;;;;;;2.47;2.23;;;15.40;99.90;;;;;;5061012;28;20423;-38
2022/05/26 02:14:50;;;;;;;2.43;1.90;;;15.40;99.90;;;;;;5068400;28;20434;-38
2022/05/26 02:17:24;;;;;;;2.43;2.23;;;15.30;99.90;;;;;;5056813;28;20444;-38
2022/05/26 02:20:04;;;;;;;2.60;2.40;;;15.30;99.90;;;;;;5054097;28;20479;-38
2022/05/26 02:22:41;;;;;;;2.50;2.30;;;15.30;99.90;;;;;;5050473;28;20456;-38
2022/05/26 02:25:22;;;;;;;2.87;1.90;;;15.40;99.90;;;;;;5069581;28;20463;-38
2022/05/26 02:27:52;;;;;;;2.40;2.20;;;15.50;99.90;;;;;;5052225;28;20600;-38
2022/05/26 02:30:18;;;;;;;2.90;1.90;;;15.40;99.90;;;;;;5069670;28;21171;-38
2022/05/26 02:32:49;;;;;;;3.00;2.67;;;15.40;99.90;;;;;;5063778;28;20449;-38
2022/05/26 02:35:31;;;;;;;5.30;2.30;;;15.30;99.90;;;;;;5048951;28;20477;-38
2022/05/26 02:38:01;;;;;;;3.20;2.30;;;15.30;99.90;;;;;;5051224;28;20542;-38
2022/05/26 02:40:27;;;;;;;5.43;2.43;;;15.30;99.90;;;;;;5067662;28;20522;-38
2022/05/26 02:43:05;;;;;;;2.80;2.43;;;15.40;99.90;;;;;;5069397;28;20778;-38
2022/05/26 02:45:55;;;;;;;4.70;2.30;;;15.40;99.90;;;;;;5069251;28;20518;-38
2022/05/26 02:48:47;;;;;;;3.83;2.27;;;15.40;99.90;;;;;;5055779;28;20435;-38
2022/05/26 02:51:31;;;;;;;2.20;2.10;;;15.50;99.90;;;;;;5053049;28;20435;-38
2022/05/26 02:54:09;;;;;;;3.17;2.60;;;15.50;99.90;;;;;;5066261;28;20455;-38
2022/05/26 02:57:05;;;;;;;4.10;2.00;;;15.40;99.90;;;;;;5058378;28;20511;-38
2022/05/26 02:59:47;;;;;;;2.50;2.23;;;15.40;99.90;;;;;;5069097;28;20616;-38
2022/05/26 03:02:25;;;;;;;2.83;2.30;;;15.40;99.90;;;;;;5066243;28;20475;-38
2022/05/26 03:05:00;;;;;;;2.67;2.47;;;15.40;99.90;;;;;;5050650;28;20805;-38
2022/05/26 03:07:30;;;;;;;3.73;2.10;;;15.40;99.90;;;;;;5059111;28;20472;-38
2022/05/26 03:09:56;;;;;;;4.30;2.40;;;15.40;99.90;;;;;;5068830;28;20857;-38
2022/05/26 03:12:26;;;;;;;3.30;2.47;;;15.40;99.90;;;;;;5063308;28;20502;-38
2022/05/26 03:14:52;;;;;;;2.83;2.53;;;15.40;99.90;;;;;;5068863;28;20422;-38
2022/05/26 03:17:18;;;;;;;6.70;3.03;;;15.50;99.90;;;;;;5059322;28;20426;-38
2022/05/26 03:19:44;;;;;;;2.53;2.33;;;15.50;99.90;;;;;;5052495;28;20272;-38
2022/05/26 03:22:09;;;;;;;6.10;2.70;;;15.40;99.90;;;;;;5056107;28;20231;-38
2022/05/26 03:24:35;;;;;;;5.10;3.13;;;15.40;99.90;;;;;;5048847;28;20759;-38
2022/05/26 03:27:01;;;;;;;3.20;2.63;;;15.40;99.90;;;;;;5043304;28;20179;-38
2022/05/26 03:29:27;;;;;;;3.47;3.03;;;15.30;99.90;;;;;;5049667;28;20238;-38
2022/05/26 03:31:52;;;;;;;3.17;2.83;;;15.20;99.90;;;;;;5059379;28;20189;-38
2022/05/26 03:42:31;;;;;;;6.43;3.50;;;15.20;99.90;;;;;;5049957;28;20442;-38
2022/05/26 03:44:57;;;;;;;6.63;3.30;;;15.10;99.90;;;;;;5059922;28;20427;-38
2022/05/26 03:47:23;;;;;;;3.90;3.17;;;15.10;99.90;;;;;;5065689;28;20268;-38
2022/05/26 03:49:49;;;;;;;2.80;2.50;;;15.10;99.90;;;;;;5054757;28;20577;-39
2022/05/26 03:52:15;;;;;;;2.83;2.50;;;15.10;99.90;;;;;;5057095;28;20200;-38
2022/05/26 03:54:41;;;;;;;2.90;2.70;;;15.10;99.90;;;;;;5070882;28;20189;-38
2022/05/26 03:57:07;;;;;;;4.33;3.10;;;15.00;99.90;;;;;;5064427;28;20455;-38
2022/05/26 03:59:33;;;;;;;3.20;2.77;;;15.10;99.90;;;;;;5072398;28;20240;-38
2022/05/26 04:01:59;;;;;;;5.97;2.73;;;15.20;99.90;;;;;;5057856;28;20190;-38
2022/05/26 04:04:25;;;;;;;3.07;2.50;;;15.20;99.90;;;;;;5052782;28;20795;-39
2022/05/26 04:06:51;;;;;;;3.40;3.10;;;15.20;99.90;;;;;;5057300;28;20427;-38
2022/05/26 04:09:17;;;;;;;3.90;3.40;;;15.10;99.90;;;;;;5063462;28;20431;-38
2022/05/26 04:11:43;;;;;;;3.50;3.20;;;15.10;99.90;;;;;;5064435;28;20203;-38
2022/05/26 04:14:08;;;;;;;3.53;3.00;;;15.00;99.90;;;;;;5063234;28;20208;-38
2022/05/26 04:16:34;;;;;;;3.60;3.30;;;14.90;99.90;;;;;;5065086;28;20246;-38
2022/05/26 04:19:00;;;;;;;4.67;3.67;;;14.90;99.90;;;;;;5058479;28;20205;-38
2022/05/26 04:21:25;;;;;;;4.13;3.70;;;15.00;99.90;;;;;;5055223;28;20963;-38
2022/05/26 04:23:51;;;;;;;4.27;3.80;;;14.90;99.90;;;;;;5062710;28;20201;-38
2022/05/26 04:26:17;;;;;;;3.70;3.40;;;14.90;99.90;;;;;;5067646;28;20743;-38
2022/05/26 04:28:42;;;;;;;5.63;3.50;;;14.90;99.90;;;;;;5062447;28;20698;-38
2022/05/26 04:31:08;;;;;;;4.93;3.73;;;14.80;99.90;;;;;;5071778;28;20197;-38
2022/05/26 04:33:34;;;;;;;5.43;4.00;;;14.80;99.90;;;;;;5061204;28;20190;-38
2022/05/26 04:36:03;;;;;;;4.87;4.37;;;14.80;99.90;;;;;;5059466;28;20254;-38
2022/05/26 04:38:29;;;;;;;5.60;3.90;;;14.80;99.90;;;;;;5063833;28;20213;-38
2022/05/26 04:40:59;;;;;;;6.07;4.30;;;14.60;99.90;;;;;;5063976;28;20439;-38
2022/05/26 04:43:26;;;;;;;4.10;3.80;;;14.60;99.90;;;;;;5049519;28;20424;-38
2022/05/26 04:45:52;;;;;;;5.30;4.53;;;14.60;99.90;;;;;;5052819;28;20458;-38
2022/05/26 04:48:21;;;;;;;4.83;4.30;;;14.60;99.90;;;;;;5056540;28;20841;-38
2022/05/26 04:50:48;;;;;;;5.03;4.53;;;14.60;99.90;;;;;;5050613;28;20436;-39
2022/05/26 04:53:14;;;;;;;4.93;4.43;;;14.60;99.90;;;;;;5046324;28;20527;-38
2022/05/26 04:55:40;;;;;;;5.53;5.03;;;14.70;99.90;;;;;;5063175;28;20816;-38
2022/05/26 04:58:06;;;;;;;5.23;4.20;;;14.70;99.90;;;;;;5055900;28;20503;-38
2022/05/26 05:00:31;;;;;;;5.17;4.77;;;14.70;99.90;;;;;;5057104;28;20196;-39
2022/05/26 05:02:57;;;;;;;8.17;5.70;;;14.70;99.90;;;;;;5066337;28;20268;-38
2022/05/26 05:05:23;;;;;;;6.43;5.80;;;14.80;99.90;;;;;;5053305;28;20221;-38
2022/05/26 05:07:48;;;;;;;7.60;6.90;;;14.70;99.90;;;;;;5054616;28;20556;-38
2022/05/26 05:10:14;;;;;;;8.63;6.90;;;14.60;99.90;;;;;;5070252;28;20197;-38
2022/05/26 05:12:40;;;;;;;10.30;9.20;;;14.70;99.90;;;;;;5058477;28;20656;-38
2022/05/26 05:15:12;;;;;;;11.03;9.43;;;14.60;99.90;;;;;;5056723;28;20197;-38
2022/05/26 05:17:39;;;;;;;15.83;10.57;;;14.50;99.90;;;;;;5063190;28;20434;-38
2022/05/26 05:20:05;;;;;;;11.60;10.40;;;14.40;99.90;;;;;;5056823;28;20473;-38
2022/05/26 05:22:39;;;;;;;11.70;10.53;;;14.50;99.90;;;;;;5054153;28;20424;-38
2022/05/26 05:25:11;;;;;;;12.83;10.70;;;14.50;99.90;;;;;;5049692;28;20449;-39
2022/05/26 05:27:44;;;;;;;15.80;11.83;;;14.50;99.90;;;;;;5051871;28;20456;-39
2022/05/26 05:30:26;;;;;;;13.23;11.27;;;14.50;99.90;;;;;;5070640;28;20438;-38
2022/05/26 05:33:01;;;;;;;11.83;10.60;;;14.50;99.90;;;;;;5054786;28;20434;-38
2022/05/26 05:35:56;;;;;;;11.70;10.43;;;14.50;99.90;;;;;;5049924;28;20427;-38
2022/05/26 05:38:22;;;;;;;11.43;10.23;;;14.60;99.90;;;;;;5047705;28;20978;-38
2022/05/26 05:40:48;;;;;;;15.03;10.97;;;14.60;99.90;;;;;;5067437;28;20450;-38
2022/05/26 05:43:14;;;;;;;11.53;9.30;;;14.60;99.90;;;;;;5054443;28;20428;-38
2022/05/26 05:45:40;;;;;;;15.53;10.37;;;14.50;99.90;;;;;;5050005;28;20486;-38
2022/05/26 05:48:07;;;;;;;12.50;10.10;;;14.40;99.90;;;;;;5049154;28;20452;-38
2022/05/26 05:50:33;;;;;;;11.87;10.10;;;14.50;99.90;;;;;;5049317;28;20272;-39
2022/05/26 05:52:58;;;;;;;11.30;9.83;;;14.60;99.90;;;;;;5049847;28;20538;-39
2022/05/26 05:55:25;;;;;;;12.20;9.50;;;14.60;99.90;;;;;;5045955;28;20209;-38
2022/05/26 05:57:51;;;;;;;13.57;10.30;;;14.60;99.90;;;;;;5051129;28;20607;-38
2022/05/26 06:00:17;;;;;;;14.30;9.90;;;14.50;99.90;;;;;;5067268;28;20435;-38
2022/05/26 06:02:42;;;;;;;10.80;8.20;;;14.50;99.90;;;;;;5052396;28;20435;-40
2022/05/26 06:05:08;;;;;;;14.00;10.27;;;14.50;99.90;;;;;;5051508;28;20435;-39
2022/05/26 06:07:37;;;;;;;16.40;11.00;;;14.50;99.90;;;;;;5056360;28;20771;-38
2022/05/26 06:10:04;;;;;;;16.93;10.77;;;14.60;99.90;;;;;;5067228;28;20420;-38
2022/05/26 06:12:29;;;;;;;12.90;9.70;;;14.60;99.90;;;;;;5062120;28;20433;-39
2022/05/26 06:14:55;;;;;;;14.73;10.67;;;14.70;99.90;;;;;;5065730;28;20423;-38
2022/05/26 06:17:21;;;;;;;13.83;10.90;;;14.70;99.90;;;;;;5062442;28;20170;-39
2022/05/26 06:19:47;;;;;;;17.17;11.80;;;14.70;99.90;;;;;;5058871;28;20201;-40
2022/05/26 06:22:18;;;;;;;14.23;10.87;;;14.70;99.90;;;;;;5054648;28;20668;-38
2022/05/26 06:24:44;;;;;;;14.13;11.00;;;14.70;99.90;;;;;;5067185;28;20425;-39
2022/05/26 06:29:57;;;;;;;20.20;13.23;;;14.80;99.90;;;;;;5044580;28;20423;-39
2022/05/26 06:37:54;;;;;;;14.40;10.60;;;14.80;99.90;;;;;;5055661;28;20417;-38
2022/05/26 06:40:20;;;;;;;20.43;13.17;;;15.00;99.90;;;;;;5061701;28;20772;-39
2022/05/26 06:42:47;;;;;;;21.30;15.10;;;14.90;99.90;;;;;;5066744;28;20263;-39
2022/05/26 06:45:15;;;;;;;20.13;13.63;;;15.00;99.90;;;;;;5069441;28;20816;-38
2022/05/26 06:47:41;;;;;;;15.97;12.47;;;15.00;99.90;;;;;;5068608;28;20456;-38
2022/05/26 06:50:08;;;;;;;14.03;10.70;;;15.00;99.90;;;;;;5054005;28;20532;-38
2022/05/26 06:52:34;;;;;;;15.03;12.00;;;15.10;99.90;;;;;;5052615;28;20427;-38
2022/05/26 06:55:04;;;;;;;18.70;13.70;;;15.10;99.90;;;;;;5062927;28;20429;-38
2022/05/26 06:57:30;;;;;;;16.63;11.80;;;15.10;99.90;;;;;;5050127;28;20648;-39
2022/05/26 06:59:56;;;;;;;18.93;12.80;;;15.10;99.90;;;;;;5062653;28;20502;-39
2022/05/26 07:02:22;;;;;;;16.47;13.00;;;15.10;99.90;;;;;;5069338;28;20197;-39
2022/05/26 07:04:48;;;;;;;17.60;13.73;;;15.10;99.90;;;;;;5056674;28;20478;-39
2022/05/26 07:07:15;;;;;;;18.97;13.97;;;15.10;99.90;;;;;;5057698;28;20930;-38
2022/05/26 07:09:41;;;;;;;16.30;13.37;;;15.00;99.90;;;;;;5062248;28;20181;-38
2022/05/26 07:12:08;;;;;;;23.57;13.20;;;15.10;99.90;;;;;;5068180;28;20423;-39
2022/05/26 07:14:33;;;;;;;16.30;13.43;;;15.00;99.90;;;;;;5062529;28;20426;-39
2022/05/26 07:16:59;;;;;;;34.57;15.20;;;15.10;99.90;;;;;;5061057;28;20419;-38
2022/05/26 07:19:26;;;;;;;18.63;14.10;;;15.10;99.90;;;;;;5061146;28;20209;-38
2022/05/26 07:21:51;;;;;;;18.73;13.50;;;15.10;99.90;;;;;;5048670;28;20428;-39
2022/05/26 07:24:23;;;;;;;18.93;14.13;;;15.10;99.90;;;;;;5049993;28;20428;-39
2022/05/26 07:26:49;;;;;;;18.60;13.60;;;15.20;99.90;;;;;;5061989;28;20617;-38
2022/05/26 07:29:15;;;;;;;20.60;13.30;;;15.10;99.90;;;;;;5068200;28;20430;-38
2022/05/26 07:31:41;;;;;;;18.87;14.00;;;15.20;99.90;;;;;;5072950;28;20828;-38
2022/05/26 07:34:07;;;;;;;23.20;12.97;;;15.30;99.90;;;;;;5068224;28;20459;-38
2022/05/26 07:42:06;;;;;;;16.93;12.70;;;15.70;99.90;;;;;;5072669;28;20429;-38
2022/05/26 07:44:35;;;;;;;15.97;12.60;;;15.70;99.90;;;;;;5060514;28;20932;-39
2022/05/26 07:47:06;;;;;;;18.53;14.23;;;15.80;99.90;;;;;;5071830;28;20431;-38
2022/05/26 07:49:43;;;;;;;17.37;13.97;;;15.70;99.90;;;;;;5065739;28;20432;-39
2022/05/26 07:52:10;;;;;;;15.73;13.27;;;15.70;99.90;;;;;;5055192;28;20853;-38
2022/05/26 07:54:37;;;;;;;18.00;13.50;;;15.90;99.90;;;;;;5061186;28;20431;-39
2022/05/26 07:57:04;;;;;;;16.73;12.70;;;16.00;99.90;;;;;;5071564;28;20443;-39
2022/05/26 07:59:30;;;;;;;15.00;11.63;;;16.20;99.90;;;;;;5064318;28;20482;-38
2022/05/26 08:01:56;;;;;;;17.80;12.27;;;16.50;99.90;;;;;;5071948;28;20411;-40
2022/05/26 08:04:22;;;;;;;17.47;12.20;;;16.60;99.90;;;;;;5067853;28;20438;-39
2022/05/26 08:06:48;;;;;;;19.43;14.60;;;16.80;99.90;;;;;;5054605;28;20419;-39
2022/05/26 08:09:16;;;;;;;20.63;15.57;;;16.80;99.90;;;;;;5056684;28;20190;-40
2022/05/26 08:11:42;;;;;;;20.53;16.07;;;16.80;99.90;;;;;;5069327;28;20419;-39
2022/05/26 08:14:09;;;;;;;22.03;14.87;;;16.70;99.90;;;;;;5068638;28;20480;-39
2022/05/26 08:16:35;;;;;;;19.70;16.10;;;16.60;99.90;;;;;;5064718;28;20431;-38
2022/05/26 08:19:02;;;;;;;22.10;16.67;;;16.40;99.90;;;;;;5071762;28;20465;-38
2022/05/26 08:21:28;;;;;;;20.67;16.17;;;16.40;99.90;;;;;;5054880;28;20498;-38
2022/05/26 08:23:54;;;;;;;17.30;15.40;;;16.50;99.90;;;;;;5067324;28;20503;-38
2022/05/26 08:26:20;;;;;;;18.33;15.13;;;16.60;99.90;;;;;;5065052;28;20849;-38
2022/05/26 08:28:46;;;;;;;15.20;13.60;;;16.70;99.90;;;;;;5052589;28;20213;-41
2022/05/26 08:31:13;;;;;;;15.60;13.30;;;16.70;99.90;;;;;;5069718;28;20424;-39
2022/05/26 08:33:40;;;;;;;16.47;13.73;;;16.70;99.90;;;;;;5071680;28;20419;-38
2022/05/26 08:36:07;;;;;;;18.97;13.20;;;16.70;99.90;;;;;;5059339;28;20943;-38
2022/05/26 08:38:33;;;;;;;16.77;12.07;;;16.80;99.90;;;;;;5050844;28;20459;-38
2022/05/26 08:41:00;;;;;;;15.97;12.87;;;16.90;99.90;;;;;;5070080;28;20426;-38
2022/05/26 08:43:58;;;;;;;12.93;11.60;;;16.90;99.90;;;;;;5063410;28;20478;-38
2022/05/26 08:46:30;;;;;;;13.07;11.53;;;17.00;99.90;;;;;;5071613;28;20419;-39
2022/05/26 08:49:03;;;;;;;14.00;11.70;;;16.90;99.90;;;;;;5071410;28;20419;-38
2022/05/26 08:51:39;;;;;;;13.67;11.40;;;16.90;99.90;;;;;;5052345;28;20901;-38
2022/05/26 08:54:10;;;;;;;12.73;10.93;;;16.90;99.90;;;;;;5053708;28;20485;-39
2022/05/26 08:56:35;;;;;;;11.60;10.50;;;16.80;99.90;;;;;;5064258;28;20462;-39
2022/05/26 08:59:07;;;;;;;13.53;10.90;;;16.70;99.90;;;;;;5066457;28;20467;-39
2022/05/26 09:01:33;;;;;;;17.70;12.40;;;16.70;99.90;;;;;;5071338;28;20290;-39
2022/05/26 09:04:00;;;;;;;11.93;10.50;;;16.80;99.90;;;;;;5071286;28;20444;-39
2022/05/26 09:06:26;;;;;;;13.63;10.73;;;17.10;99.90;;;;;;5053307;28;20452;-39
2022/05/26 09:14:41;;;;;;;11.23;9.07;;;17.30;99.90;;;;;;5057665;28;20424;-38
2022/05/26 09:17:10;;;;;;;10.83;8.73;;;17.30;99.90;;;;;;5063877;28;20482;-38
2022/05/26 09:19:45;;;;;;;12.63;9.90;;;17.40;99.90;;;;;;5068626;28;20474;-39
2022/05/26 09:22:26;;;;;;;10.97;9.87;;;17.60;99.90;;;;;;5055680;28;20416;-39
2022/05/26 09:24:52;;;;;;;14.00;10.50;;;17.90;99.90;;;;;;5060964;28;20423;-39
2022/05/26 09:27:28;;;;;;;11.10;9.33;;;18.10;99.90;;;;;;5056091;28;20471;-38
2022/05/26 09:30:12;;;;;;;13.20;10.33;;;18.30;99.90;;;;;;5056620;28;20654;-39
2022/05/26 09:32:38;;;;;;;11.83;10.13;;;18.50;99.90;;;;;;5070772;28;20422;-38
2022/05/26 09:35:28;;;;;;;9.50;8.50;;;18.60;99.90;;;;;;5064874;28;20770;-39
2022/05/26 09:37:56;;;;;;;9.80;8.20;;;18.40;99.90;;;;;;5050005;28;21075;-38
2022/05/26 09:40:25;;;;;;;11.40;7.37;;;18.30;99.90;;;;;;5050764;28;20507;-39
2022/05/26 09:43:02;;;;;;;9.00;7.20;;;18.20;99.90;;;;;;5069223;28;20434;-39
2022/05/26 09:45:42;;;;;;;8.70;7.17;;;18.20;99.90;;;;;;5065614;28;20423;-38
2022/05/26 09:48:19;;;;;;;11.37;8.17;;;18.20;99.90;;;;;;5069534;28;20422;-38
2022/05/26 09:51:07;;;;;;;8.30;7.60;;;18.10;99.90;;;;;;5058430;28;20438;-39
2022/05/26 09:53:38;;;;;;;9.83;8.10;;;18.10;99.90;;;;;;5050778;28;20431;-38
2022/05/26 09:56:05;;;;;;;10.77;7.40;;;18.10;99.90;;;;;;5061048;28;20453;-38
2022/05/26 09:58:41;;;;;;;7.80;7.10;;;18.30;99.90;;;;;;5068783;28;20482;-39
2022/05/26 10:01:26;;;;;;;11.30;7.30;;;18.40;99.90;;;;;;5069933;28;20426;-40
2022/05/26 10:04:09;;;;;;;7.93;7.10;;;18.40;99.90;;;;;;5070144;28;20745;-38
2022/05/26 10:06:46;;;;;;;11.03;6.73;;;18.30;99.90;;;;;;5055055;28;20496;-38
2022/05/26 10:09:41;;;;;;;8.47;6.43;;;18.40;99.90;;;;;;5052389;28;20427;-38
2022/05/26 10:12:26;;;;;;;6.63;5.47;;;18.50;99.90;;;;;;5044267;28;20457;-39
2022/05/26 10:15:20;;;;;;;6.33;5.70;;;18.50;99.90;;;;;;5059808;28;20480;-38
2022/05/26 10:18:16;;;;;;;6.03;5.00;;;18.70;99.90;;;;;;5056879;28;20419;-39
2022/05/26 10:21:08;;;;;;;8.67;5.70;;;18.90;99.90;;;;;;5062442;28;20518;-39
2022/05/26 10:23:56;;;;;;;6.83;6.13;;;19.10;99.90;;;;;;5054371;28;20465;-39
2022/05/26 10:26:33;;;;;;;8.13;5.87;;;19.20;99.90;;;;;;5062172;28;20550;-39
2022/05/26 10:29:07;;;;;;;8.53;4.90;;;19.30;99.90;;;;;;5057705;28;20517;-38
2022/05/26 10:32:05;;;;;;;6.50;4.90;;;19.40;99.90;;;;;;5069473;28;20415;-39
2022/05/26 10:35:00;;;;;;;5.40;4.70;;;19.60;99.90;;;;;;5069477;28;20419;-38
2022/05/26 10:37:30;;;;;;;7.20;4.90;;;19.60;99.90;;;;;;5051062;28;20416;-39
2022/05/26 10:40:23;;;;;;;7.03;5.07;;;19.70;99.90;;;;;;5052830;28;20459;-39
2022/05/26 10:43:08;;;;;;;6.17;5.07;;;19.70;99.90;;;;;;5069325;28;20416;-39
2022/05/26 10:45:40;;;;;;;8.40;4.80;;;19.70;99.90;;;;;;5067720;28;20503;-39
2022/05/26 10:48:10;;;;;;;7.47;4.80;;;19.70;99.90;;;;;;5068495;28;20447;-41
2022/05/26 10:50:56;;;;;;;6.70;4.60;;;19.60;99.90;;;;;;5059964;28;20451;-39
2022/05/26 10:54:00;;;;;;;8.53;4.57;;;19.60;99.90;;;;;;5051370;28;20557;-38
2022/05/26 10:56:31;;;;;;;7.07;4.57;;;19.40;99.90;;;;;;5057987;28;20453;-38
2022/05/26 10:59:28;;;;;;;4.73;4.00;;;19.50;99.90;;;;;;5065703;28;20479;-38
2022/05/26 11:02:09;;;;;;;6.40;4.40;;;19.70;99.90;;;;;;5065226;28;20810;-38
2022/05/26 11:05:05;;;;;;;4.97;4.50;;;20.00;99.90;;;;;;5069076;28;20411;-39
2022/05/26 11:07:56;;;;;;;5.10;3.87;;;20.30;99.90;;;;;;5054736;28;20431;-39
2022/05/26 11:10:38;;;;;;;6.13;4.63;;;20.30;99.90;;;;;;5051579;28;20424;-38
2022/05/26 11:13:26;;;;;;;5.30;4.17;;;20.40;99.90;;;;;;5069076;28;20533;-39
2022/05/26 11:19:22;;;;;;;8.40;4.53;;;20.30;99.90;;;;;;5047049;28;20447;-38
2022/05/26 11:21:49;;;;;;;6.43;4.57;;;20.20;99.90;;;;;;5053924;28;20442;-38
2022/05/26 11:24:15;;;;;;;5.20;3.83;;;20.20;99.90;;;;;;5053870;28;20425;-39
2022/05/26 11:27:14;;;;;;;5.60;4.90;;;20.00;99.90;;;;;;5050187;28;20431;-39
2022/05/26 11:30:05;;;;;;;6.53;4.27;;;20.10;99.90;;;;;;5065494;28;20506;-38
2022/05/26 11:38:08;;;;;;;6.00;4.20;;;20.10;99.90;;;;;;5046648;28;20424;-38
2022/05/26 11:40:49;;;;;;;7.97;4.63;;;20.10;99.90;;;;;;5053745;28;20416;-38
2022/05/26 11:43:25;;;;;;;8.70;4.77;;;19.90;99.90;;;;;;5068967;28;20427;-39
2022/05/26 11:45:53;;;;;;;5.60;4.17;;;19.90;99.90;;;;;;5057594;28;20423;-38
2022/05/26 11:48:31;;;;;;;5.37;4.20;;;20.00;99.90;;;;;;5068025;28;20429;-38
2022/05/26 11:51:19;;;;;;;4.10;3.70;;;20.10;99.90;;;;;;5038334;28;20432;-38
2022/05/26 11:53:47;;;;;;;4.40;4.00;;;20.00;99.90;;;;;;5053030;28;20424;-38
2022/05/26 11:56:25;;;;;;;6.37;4.10;;;19.80;99.90;;;;;;5061750;28;20548;-38
2022/05/26 11:59:28;;;;;;;4.40;3.97;;;19.50;99.90;;;;;;5068089;28;20451;-39
2022/05/26 12:02:00;;;;;;;7.30;4.10;;;19.30;99.90;;;;;;5065578;28;20415;-38
2022/05/26 12:04:35;;;;;;;4.83;4.23;;;19.10;99.90;;;;;;5068453;28;20817;-38
2022/05/26 12:07:21;;;;;;;6.23;3.90;;;19.20;99.90;;;;;;5057255;28;20432;-38
2022/05/26 12:10:00;;;;;;;5.80;3.67;;;19.10;99.90;;;;;;5049053;28;20416;-38
2022/05/26 12:12:26;;;;;;;4.40;4.00;;;19.20;99.90;;;;;;5060189;28;20426;-38
2022/05/26 12:14:55;;;;;;;5.40;4.00;;;19.20;99.90;;;;;;5069561;28;20754;-38
2022/05/26 12:17:44;;;;;;;7.63;4.20;;;19.30;99.90;;;;;;5065209;28;20177;-38
2022/05/26 12:20:10;;;;;;;6.37;4.20;;;19.40;99.90;;;;;;5071962;28;20463;-38
2022/05/26 12:22:47;;;;;;;6.03;3.90;;;19.40;99.90;;;;;;5056336;28;20435;-38
2022/05/26 12:25:30;;;;;;;6.20;4.10;;;19.30;99.90;;;;;;5058799;28;20183;-39
2022/05/26 12:28:10;;;;;;;7.10;4.60;;;19.20;99.90;;;;;;5055861;28;20509;-38
2022/05/26 12:30:44;;;;;;;7.70;4.37;;;19.30;99.90;;;;;;5060636;28;20420;-38
2022/05/26 12:33:22;;;;;;;4.97;3.80;;;19.50;99.90;;;;;;5071739;28;20910;-38
2022/05/26 12:36:23;;;;;;;6.27;4.60;;;19.70;99.90;;;;;;5070506;28;20434;-38
2022/05/26 12:39:01;;;;;;;4.20;3.80;;;19.90;99.90;;;;;;5048387;28;20948;-38
2022/05/26 12:41:53;;;;;;;7.33;3.53;;;20.00;99.90;;;;;;5062414;28;20806;-38
2022/05/26 12:44:53;;;;;;;4.13;3.73;;;20.10;99.90;;;;;;5071513;28;20423;-38
2022/05/26 12:47:19;;;;;;;6.27;3.83;;;20.00;99.90;;;;;;5067512;28;20506;-39
2022/05/26 12:50:04;;;;;;;4.50;3.70;;;19.90;99.90;;;;;;5071571;28;20507;-39
2022/05/26 12:52:43;;;;;;;7.93;4.50;;;19.90;99.90;;;;;;5060568;28;20192;-38
2022/05/26 12:55:30;;;;;;;5.87;4.53;;;19.90;99.90;;;;;;5067456;28;20451;-38
2022/05/26 12:58:09;;;;;;;5.77;4.43;;;19.90;99.60;;;;;;5061609;28;20860;-38
2022/05/26 13:00:44;;;;;;;6.03;4.40;;;19.80;99.50;;;;;;5068802;28;20460;-39
2022/05/26 13:03:23;;;;;;;5.37;4.07;;;19.90;99.70;;;;;;5071190;28;20476;-38
2022/05/26 13:06:26;;;;;;;4.80;3.57;;;20.00;99.20;;;;;;5070099;28;20433;-39
2022/05/26 13:09:21;;;;;;;5.83;3.83;;;20.00;98.80;;;;;;5051494;28;20422;-38
2022/05/26 13:11:57;;;;;;;5.07;4.00;;;19.80;99.10;;;;;;5060945;28;20450;-38
2022/05/26 13:14:34;;;;;;;4.77;3.20;;;19.80;99.90;;;;;;5070849;28;20426;-38
2022/05/26 13:17:04;;;;;;;4.07;3.53;;;19.80;99.90;;;;;;5058318;28;20548;-38
2022/05/26 13:19:30;;;;;;;9.47;4.30;;;19.90;99.90;;;;;;5070799;28;20466;-39
2022/05/26 13:21:58;;;;;;;4.90;3.60;;;20.00;99.90;;;;;;5063588;28;20432;-38
2022/05/26 13:24:29;;;;;;;5.07;3.83;;;20.10;99.90;;;;;;5056788;28;20921;-39
2022/05/26 13:26:59;;;;;;;4.43;3.70;;;20.10;99.90;;;;;;5057270;28;20745;-38
2022/05/26 13:29:26;;;;;;;3.97;3.53;;;20.00;99.90;;;;;;5067612;28;20438;-39
2022/05/26 13:34:46;;;;;;;3.67;3.00;;;20.10;99.90;;;;;;5070485;28;20478;-38
2022/05/26 13:37:23;;;;;;;4.20;3.80;;;20.30;99.90;;;;;;5061315;28;20446;-38
2022/05/26 13:40:14;;;;;;;4.90;3.70;;;20.40;99.90;;;;;;5047637;28;20843;-38
2022/05/26 13:42:51;;;;;;;5.70;3.40;;;20.40;99.20;;;;;;5056749;28;20508;-38
2022/05/26 13:45:24;;;;;;;4.27;3.87;;;20.50;99.30;;;;;;5066814;28;20445;-38
2022/05/26 13:47:51;;;;;;;4.00;3.30;;;20.50;98.70;;;;;;5069423;28;20978;-39
2022/05/26 13:50:28;;;;;;;7.83;3.43;;;20.40;98.80;;;;;;5070455;28;20786;-38
2022/05/26 13:52:54;;;;;;;3.50;3.20;;;20.50;99.90;;;;;;5057555;28;20912;-38